createdAt,value
2022-09-04T00:02:07.014Z,92.03
2022-09-04T00:04:44.932Z,91.95
2022-09-04T00:07:24.723Z,92.88
2022-09-04T00:10:03.738Z,92.20
2022-09-04T00:12:39.863Z,92.27
2022-09-04T00:15:14.808Z,92.64
2022-09-04T00:17:47.733Z,92.16
2022-09-04T00:20:32.247Z,91.73
2022-09-04T00:23:11.224Z,92.50
2022-09-04T00:25:48.403Z,93.15
2022-09-04T00:28:26.029Z,93.27
2022-09-04T00:31:01.136Z,93.38
2022-09-04T00:33:38.358Z,93.43
2022-09-04T00:36:07.771Z,94.05
2022-09-04T00:38:44.792Z,94.38
2022-09-04T00:41:25.523Z,95.01
2022-09-04T00:44:29.175Z,94.88
2022-09-04T00:47:19.292Z,95.02
2022-09-04T00:50:21.395Z,95.48
2022-09-04T00:53:10.145Z,95.42
2022-09-04T00:56:15.613Z,96.29
2022-09-04T00:58:57.833Z,96.08
2022-09-04T01:01:27.999Z,96.04
2022-09-04T01:04:16.769Z,95.97
2022-09-04T01:07:00.072Z,95.47
2022-09-04T01:09:52.690Z,95.43
2022-09-04T01:12:33.688Z,95.63
2022-09-04T01:15:14.542Z,95.65
2022-09-04T01:17:53.705Z,95.82
2022-09-04T01:20:34.879Z,96.14
2022-09-04T01:23:20.511Z,96.45
2022-09-04T01:26:05.705Z,95.78
2022-09-04T01:28:43.456Z,96.40
2022-09-04T01:31:24.028Z,96.65
2022-09-04T01:34:09.839Z,96.45
2022-09-04T01:36:44.699Z,96.47
2022-09-04T01:39:12.946Z,97.19
2022-09-04T01:41:50.467Z,96.92
2022-09-04T01:44:18.672Z,97.70
2022-09-04T01:47:01.904Z,97.26
2022-09-04T01:49:37.619Z,97.44
2022-09-04T01:52:19.744Z,97.86
2022-09-04T01:54:56.860Z,98.04
2022-09-04T01:57:41.101Z,97.74
2022-09-04T02:00:12.179Z,97.49
2022-09-04T02:03:04.174Z,97.27
2022-09-04T02:05:44.522Z,97.33
2022-09-04T02:08:31.244Z,96.86
2022-09-04T02:11:07.846Z,97.38
2022-09-04T02:13:46.051Z,96.96
2022-09-04T02:16:22.594Z,96.97
2022-09-04T02:19:03.131Z,97.48
2022-09-04T02:21:37.083Z,97.19
2022-09-04T02:24:13.925Z,97.51
2022-09-04T02:26:48.428Z,97.07
2022-09-04T02:29:27.472Z,96.76
2022-09-04T02:32:05.284Z,97.17
2022-09-04T02:34:49.979Z,96.67
2022-09-04T02:37:26.027Z,95.95
2022-09-04T02:40:02.381Z,95.96
2022-09-04T02:42:39.964Z,95.62
2022-09-04T02:45:25.234Z,94.86
2022-09-04T02:48:01.756Z,94.55
2022-09-04T02:50:50.653Z,94.36
2022-09-04T02:53:30.108Z,93.91
2022-09-04T02:56:11.048Z,93.46
2022-09-04T02:59:03.405Z,94.01
2022-09-04T03:01:45.395Z,95.30
2022-09-04T03:04:26.078Z,94.43
2022-09-04T03:07:00.858Z,93.32
2022-09-04T03:09:34.996Z,92.44
2022-09-04T03:12:14.959Z,91.84
2022-09-04T03:14:50.252Z,90.80
2022-09-04T03:17:27.241Z,90.37
2022-09-04T03:20:02.179Z,89.96
2022-09-04T03:22:34.638Z,90.40
2022-09-04T03:25:10.600Z,89.95
2022-09-04T03:27:39.027Z,90.01
2022-09-04T03:30:10.575Z,89.07
2022-09-04T03:32:52.030Z,89.09
2022-09-04T03:35:29.264Z,88.75
2022-09-04T03:38:15.750Z,89.18
2022-09-04T03:40:55.195Z,89.44
2022-09-04T03:43:43.344Z,89.10
2022-09-04T03:46:26.462Z,89.39
2022-09-04T03:49:12.101Z,87.94
2022-09-04T03:51:52.238Z,87.37
2022-09-04T03:54:38.767Z,88.47
2022-09-04T03:57:27.544Z,88.03
2022-09-04T04:00:07.434Z,87.79
2022-09-04T04:02:52.213Z,88.80
2022-09-04T04:05:52.616Z,86.43
2022-09-04T04:08:44.043Z,85.91
2022-09-04T04:11:29.604Z,85.36
2022-09-04T04:14:22.485Z,86.07
2022-09-04T04:17:02.841Z,87.68
2022-09-04T04:20:05.415Z,85.87
2022-09-04T04:22:52.681Z,84.43
2022-09-04T04:25:52.357Z,84.07
2022-09-04T04:28:41.433Z,82.94
2022-09-04T04:31:21.050Z,83.45
2022-09-04T04:34:01.241Z,82.88
2022-09-04T04:36:45.701Z,82.84
2022-09-04T04:39:30.143Z,81.60
2022-09-04T04:42:10.483Z,80.15
2022-09-04T04:45:09.407Z,80.15
2022-09-04T04:48:05.890Z,78.89
2022-09-04T04:50:43.396Z,77.31
2022-09-04T04:53:20.760Z,76.56
2022-09-04T04:55:58.319Z,77.33
2022-09-04T04:58:43.102Z,73.95
2022-09-04T05:01:21.740Z,73.92
2022-09-04T05:04:03.319Z,73.65
2022-09-04T05:06:39.489Z,73.57
2022-09-04T05:09:17.742Z,71.98
2022-09-04T05:11:58.055Z,71.93
2022-09-04T05:14:38.192Z,71.66
2022-09-04T05:17:19.051Z,70.88
2022-09-04T05:19:52.572Z,70.70
2022-09-04T05:22:28.783Z,71.16
2022-09-04T05:25:11.582Z,71.01
2022-09-04T05:27:57.313Z,71.16
2022-09-04T05:30:37.630Z,71.49
2022-09-04T05:33:13.185Z,70.69
2022-09-04T05:35:51.326Z,68.03
2022-09-04T05:38:28.227Z,61.99
2022-09-04T05:41:07.547Z,54.54
2022-09-04T05:43:53.546Z,53.32
2022-09-04T05:46:39.360Z,53.29
2022-09-04T05:49:19.614Z,49.75
2022-09-04T05:52:03.993Z,51.90
2022-09-04T05:55:01.653Z,51.07
2022-09-04T05:57:41.892Z,52.90
2022-09-04T06:00:16.212Z,52.70
2022-09-04T06:03:17.481Z,50.21
2022-09-04T06:05:58.143Z,50.92
2022-09-04T06:08:39.694Z,49.59
2022-09-04T06:11:37.827Z,49.45
2022-09-04T06:14:41.314Z,51.35
2022-09-04T06:17:23.520Z,51.03
2022-09-04T06:20:11.031Z,49.16
2022-09-04T06:22:55.564Z,50.26
2022-09-04T06:25:50.017Z,46.52
2022-09-04T06:28:39.091Z,45.61
2022-09-04T06:31:30.690Z,48.87
2022-09-04T06:34:08.370Z,50.11
2022-09-04T06:36:55.519Z,48.63
2022-09-04T06:39:57.381Z,44.98
2022-09-04T06:42:37.582Z,46.15
2022-09-04T06:45:20.681Z,47.40
2022-09-04T06:48:09.882Z,45.44
2022-09-04T06:50:49.546Z,45.81
2022-09-04T06:53:31.923Z,48.93
2022-09-04T06:56:18.466Z,47.50
2022-09-04T06:59:01.034Z,47.09
2022-09-04T07:01:40.678Z,48.32
2022-09-04T07:04:21.367Z,49.56
2022-09-04T07:07:00.618Z,50.63
2022-09-04T07:09:34.344Z,48.46
2022-09-04T07:12:33.004Z,48.67
2022-09-04T07:15:29.090Z,50.75
2022-09-04T07:18:07.598Z,54.12
2022-09-04T07:20:44.285Z,54.99
2022-09-04T07:23:25.429Z,57.16
2022-09-04T07:26:03.575Z,59.12
2022-09-04T07:28:43.611Z,58.73
2022-09-04T07:31:18.229Z,58.61
2022-09-04T07:33:56.977Z,59.68
2022-09-04T07:36:33.513Z,59.52
2022-09-04T07:39:10.800Z,59.25
2022-09-04T07:41:45.849Z,58.96
2022-09-04T07:44:24.361Z,59.79
2022-09-04T07:47:05.537Z,58.90
2022-09-04T07:49:39.190Z,60.17
2022-09-04T07:52:20.041Z,61.41
2022-09-04T07:55:10.981Z,61.44
2022-09-04T07:57:56.555Z,60.32
2022-09-04T08:00:25.594Z,61.17
2022-09-04T08:03:22.156Z,60.36
2022-09-04T08:05:57.419Z,60.19
2022-09-04T08:09:05.193Z,60.34
2022-09-04T08:11:58.868Z,59.96
2022-09-04T08:14:42.476Z,60.36
2022-09-04T08:17:41.499Z,57.32
2022-09-04T08:20:32.039Z,56.10
2022-09-04T08:23:09.230Z,57.07
2022-09-04T08:25:53.918Z,56.68
2022-09-04T08:28:35.409Z,55.22
2022-09-04T08:31:09.396Z,53.83
2022-09-04T08:34:02.630Z,54.81
2022-09-04T08:36:43.241Z,56.33
2022-09-04T08:39:14.867Z,56.47
2022-09-04T08:42:12.673Z,55.25
2022-09-04T08:45:22.270Z,55.99
2022-09-04T08:48:21.879Z,55.11
2022-09-04T08:51:30.249Z,52.86
2022-09-04T08:54:22.340Z,53.19
2022-09-04T08:57:12.129Z,53.71
2022-09-04T09:00:07.419Z,51.47
2022-09-04T09:03:29.753Z,52.46
2022-09-04T09:06:31.455Z,52.06
2022-09-04T09:09:34.814Z,51.82
2022-09-04T09:12:41.972Z,53.58
2022-09-04T09:15:57.992Z,54.17
2022-09-04T09:18:37.402Z,53.84
2022-09-04T09:21:11.791Z,54.16
2022-09-04T09:23:54.391Z,54.37
2022-09-04T09:26:29.653Z,54.41
2022-09-04T09:29:41.882Z,53.90
2022-09-04T09:32:42.754Z,53.91
2022-09-04T09:35:55.956Z,54.76
2022-09-04T09:39:03.621Z,56.77
2022-09-04T09:42:38.048Z,56.16
2022-09-04T09:45:23.373Z,59.12
2022-09-04T09:48:17.068Z,59.32
2022-09-04T09:51:11.853Z,59.17
2022-09-04T09:54:13.238Z,57.07
2022-09-04T09:57:21.072Z,57.56
2022-09-04T10:00:12.051Z,56.81
2022-09-04T10:03:24.481Z,56.40
2022-09-04T10:06:28.111Z,57.86
2022-09-04T10:09:34.728Z,56.37
2022-09-04T10:12:36.872Z,57.35
2022-09-04T10:15:39.168Z,55.56
2022-09-04T10:18:57.325Z,58.41
2022-09-04T10:22:08.132Z,56.72
2022-09-04T10:25:14.048Z,56.81
2022-09-04T10:27:59.340Z,56.23
2022-09-04T10:30:37.707Z,57.51
2022-09-04T10:33:34.129Z,55.09
2022-09-04T10:36:15.431Z,55.73
2022-09-04T10:39:12.791Z,52.91
2022-09-04T10:42:07.114Z,51.77
2022-09-04T10:45:11.257Z,51.95
2022-09-04T10:48:06.366Z,52.98
2022-09-04T10:50:57.528Z,52.50
2022-09-04T10:53:52.877Z,52.73
2022-09-04T10:56:30.132Z,52.68
2022-09-04T10:59:26.308Z,52.60
2022-09-04T11:02:14.279Z,53.12
2022-09-04T11:05:17.601Z,53.15
2022-09-04T11:08:08.177Z,51.23
2022-09-04T11:10:55.785Z,53.58
2022-09-04T11:14:08.056Z,53.46
2022-09-04T11:17:20.517Z,52.54
2022-09-04T11:20:32.884Z,54.04
2022-09-04T11:23:33.854Z,53.39
2022-09-04T11:26:54.954Z,53.16
2022-09-04T11:29:56.061Z,54.81
2022-09-04T11:32:58.232Z,55.04
2022-09-04T11:35:45.791Z,53.82
2022-09-04T11:38:20.932Z,54.48
2022-09-04T11:41:31.223Z,53.52
2022-09-04T11:44:35.680Z,55.46
2022-09-04T11:47:39.142Z,54.51
2022-09-04T11:50:19.546Z,51.43
2022-09-04T11:53:15.427Z,51.28
2022-09-04T11:56:16.795Z,49.75
2022-09-04T11:59:04.179Z,50.42
2022-09-04T12:01:58.640Z,50.72
2022-09-04T12:04:35.868Z,51.36
2022-09-04T12:07:27.620Z,51.21
2022-09-04T12:10:19.090Z,50.81
2022-09-04T12:13:37.881Z,49.81
2022-09-04T12:16:44.565Z,49.46
2022-09-04T12:19:58.940Z,50.43
2022-09-04T12:23:08.281Z,48.80
2022-09-04T12:26:06.194Z,48.58
2022-09-04T12:29:12.777Z,48.62
2022-09-04T12:32:08.368Z,48.48
2022-09-04T12:35:06.741Z,48.58
2022-09-04T12:37:59.417Z,49.65
2022-09-04T12:40:35.661Z,48.78
2022-09-04T12:43:20.524Z,49.05
2022-09-04T12:46:04.163Z,49.44
2022-09-04T12:48:40.758Z,49.38
2022-09-04T12:51:14.097Z,49.67
2022-09-04T12:54:02.101Z,48.99
2022-09-04T12:56:42.237Z,47.44
2022-09-04T12:59:23.546Z,48.77
2022-09-04T13:02:01.752Z,48.26
2022-09-04T13:04:41.651Z,48.90
2022-09-04T13:07:24.692Z,49.33
2022-09-04T13:10:04.449Z,49.33
2022-09-04T13:12:45.598Z,49.12
2022-09-04T13:15:28.478Z,47.99
2022-09-04T13:18:14.353Z,47.89
2022-09-04T13:20:51.981Z,47.45
2022-09-04T13:23:38.622Z,47.19
2022-09-04T13:26:29.866Z,46.72
2022-09-04T13:29:12.444Z,47.33
2022-09-04T13:31:55.795Z,48.21
2022-09-04T13:34:38.512Z,48.49
2022-09-04T13:37:13.478Z,48.19
2022-09-04T13:40:06.315Z,48.84
2022-09-04T13:43:15.918Z,49.88
2022-09-04T13:45:47.287Z,50.07
2022-09-04T13:48:26.478Z,50.35
2022-09-04T13:50:59.957Z,50.85
2022-09-04T13:53:34.923Z,50.09
2022-09-04T13:56:09.900Z,50.94
2022-09-04T13:58:47.910Z,50.53
2022-09-04T14:01:22.605Z,50.41
2022-09-04T14:03:54.710Z,51.16
2022-09-04T14:06:25.993Z,51.51
2022-09-04T14:09:04.322Z,51.15
2022-09-04T14:12:09.490Z,51.59
2022-09-04T14:15:08.129Z,53.14
2022-09-04T14:17:45.368Z,53.02
2022-09-04T14:20:22.658Z,53.13
2022-09-04T14:23:00.750Z,53.18
2022-09-04T14:25:38.485Z,52.63
2022-09-04T14:28:17.952Z,52.41
2022-09-04T14:30:59.281Z,50.70
2022-09-04T14:33:37.210Z,51.32
2022-09-04T14:36:16.922Z,51.59
2022-09-04T14:39:07.019Z,52.41
2022-09-04T14:41:47.640Z,52.73
2022-09-04T14:44:27.028Z,52.09
2022-09-04T14:47:08.157Z,53.11
2022-09-04T14:49:47.482Z,52.65
2022-09-04T14:52:19.782Z,53.57
2022-09-04T14:54:53.078Z,53.53
2022-09-04T14:57:29.620Z,53.61
2022-09-04T15:00:04.149Z,52.21
2022-09-04T15:02:42.329Z,51.89
2022-09-04T15:05:20.946Z,51.89
2022-09-04T15:07:53.993Z,51.55
2022-09-04T15:10:26.987Z,52.11
2022-09-04T15:13:19.357Z,52.24
2022-09-04T15:15:54.568Z,53.28
2022-09-04T15:18:31.784Z,52.80
2022-09-04T15:21:05.584Z,53.22
2022-09-04T15:23:39.968Z,53.17
2022-09-04T15:26:14.021Z,53.01
2022-09-04T15:28:48.790Z,53.08
2022-09-04T15:31:20.801Z,53.47
2022-09-04T15:33:50.972Z,53.80
2022-09-04T15:36:23.960Z,54.20
2022-09-04T15:38:55.531Z,54.82
2022-09-04T15:41:37.172Z,55.43
2022-09-04T15:44:16.601Z,55.90
2022-09-04T15:46:49.770Z,56.08
2022-09-04T15:49:30.056Z,55.31
2022-09-04T15:52:12.780Z,55.07
2022-09-04T15:54:58.902Z,56.06
2022-09-04T15:57:36.143Z,55.88
2022-09-04T16:00:11.494Z,56.27
2022-09-04T16:02:54.936Z,62.47
2022-09-04T16:05:33.548Z,64.45
2022-09-04T16:08:08.756Z,66.64
2022-09-04T16:11:00.140Z,67.60
2022-09-04T16:13:52.736Z,68.85
2022-09-04T16:16:32.055Z,68.54
2022-09-04T16:19:14.592Z,69.01
2022-09-04T16:21:55.506Z,69.47
2022-09-04T16:24:31.022Z,69.42
2022-09-04T16:27:00.687Z,69.70
2022-09-04T16:29:36.595Z,70.21
2022-09-04T16:32:09.843Z,70.66
2022-09-04T16:34:46.499Z,71.45
2022-09-04T16:37:20.674Z,70.62
2022-09-04T16:40:02.560Z,70.47
2022-09-04T16:42:38.450Z,71.31
2022-09-04T16:45:15.192Z,71.58
2022-09-04T16:47:50.948Z,71.90
2022-09-04T16:50:25.256Z,71.96
2022-09-04T16:53:14.294Z,72.02
2022-09-04T16:55:49.713Z,71.78
2022-09-04T16:58:35.274Z,72.07
2022-09-04T17:01:14.831Z,71.96
2022-09-04T17:03:54.902Z,72.22
2022-09-04T17:06:54.405Z,72.48
2022-09-04T17:09:32.237Z,72.51
2022-09-04T17:12:17.924Z,73.25
2022-09-04T17:14:52.042Z,72.89
2022-09-04T17:17:30.831Z,73.04
2022-09-04T17:20:03.881Z,73.34
2022-09-04T17:29:01.923Z,73.37
2022-09-04T17:29:09.740Z,73.64
2022-09-04T17:29:10.270Z,73.36
2022-09-04T17:31:38.968Z,73.54
2022-09-04T17:40:35.701Z,72.91
2022-09-04T17:40:42.494Z,72.76
2022-09-04T17:40:56.467Z,72.65
2022-09-04T17:43:22.381Z,72.82
2022-09-04T17:46:05.202Z,73.37
2022-09-04T17:48:39.310Z,73.65
2022-09-04T17:51:08.864Z,74.37
2022-09-04T17:53:41.396Z,74.25
2022-09-04T17:56:19.381Z,74.98
2022-09-04T17:58:53.974Z,75.45
2022-09-04T18:01:26.945Z,75.31
2022-09-04T18:04:28.215Z,75.07
2022-09-04T18:07:33.546Z,75.47
2022-09-04T18:10:04.144Z,75.39
2022-09-04T18:12:37.689Z,75.20
2022-09-04T18:15:33.348Z,75.04
2022-09-04T18:18:12.761Z,75.06
2022-09-04T18:20:51.564Z,75.49
2022-09-04T18:23:48.165Z,75.90
2022-09-04T18:26:27.850Z,76.52
2022-09-04T18:32:33.175Z,76.23
2022-09-04T18:37:15.971Z,76.81
2022-09-04T18:37:24.420Z,76.87
2022-09-04T18:38:19.847Z,76.81
2022-09-04T18:43:29.820Z,76.39
2022-09-04T18:50:20.645Z,76.32
2022-09-04T18:50:29.879Z,76.80
2022-09-04T18:50:45.746Z,76.38
2022-09-04T18:52:22.638Z,76.89
2022-09-04T18:54:59.380Z,76.61
2022-09-04T18:57:33.842Z,76.93
2022-09-04T19:00:09.507Z,76.65
2022-09-04T19:02:53.177Z,76.96
2022-09-04T19:05:36.467Z,76.94
2022-09-04T19:08:18.599Z,76.97
2022-09-04T19:10:55.265Z,76.92
2022-09-04T19:13:27.938Z,76.97
2022-09-04T19:16:05.866Z,76.98
2022-09-04T19:18:48.235Z,76.79
2022-09-04T19:21:28.275Z,77.15
2022-09-04T19:24:03.371Z,77.47
2022-09-04T19:26:40.531Z,77.48
2022-09-04T19:29:15.238Z,77.22
2022-09-04T19:31:52.341Z,77.33
2022-09-04T19:34:28.784Z,77.18
2022-09-04T19:37:24.662Z,77.10
2022-09-04T19:46:14.313Z,77.09
2022-09-04T19:46:15.176Z,77.35
2022-09-04T19:46:24.963Z,77.57
2022-09-04T19:49:07.764Z,77.70
2022-09-04T19:53:30.813Z,78.09
2022-09-04T19:54:59.965Z,78.44
2022-09-04T19:57:45.560Z,78.56
2022-09-04T20:00:31.186Z,78.11
2022-09-04T20:03:30.371Z,78.04
2022-09-04T20:06:19.989Z,78.39
2022-09-04T20:08:56.934Z,78.49
2022-09-04T20:11:35.550Z,78.63
2022-09-04T20:14:14.797Z,78.70
2022-09-04T20:16:55.030Z,78.92
2022-09-04T20:19:27.863Z,79.08
2022-09-04T20:22:02.645Z,79.03
2022-09-04T20:24:39.874Z,79.55
2022-09-04T20:27:17.021Z,79.72
2022-09-04T20:29:54.631Z,79.15
2022-09-04T20:32:27.608Z,79.58
2022-09-04T20:35:14.106Z,79.44
2022-09-04T20:37:53.743Z,79.36
2022-09-04T20:40:33.041Z,78.80
2022-09-04T20:43:22.767Z,79.13
2022-09-04T20:50:43.978Z,78.73
2022-09-04T20:52:55.658Z,78.65
2022-09-04T20:52:56.431Z,78.96
2022-09-04T20:55:10.150Z,78.18
2022-09-04T21:00:10.751Z,78.24
2022-09-04T21:03:17.614Z,78.29
2022-09-04T21:04:04.837Z,77.71
2022-09-04T21:06:38.450Z,76.89
2022-09-04T21:09:55.559Z,76.83
2022-09-04T21:12:35.850Z,77.17
2022-09-04T21:15:10.890Z,76.67
2022-09-04T21:18:16.401Z,76.44
2022-09-04T21:21:00.269Z,76.12
2022-09-04T21:23:56.518Z,75.93
2022-09-04T21:26:47.151Z,76.13
2022-09-04T21:29:42.611Z,75.59
2022-09-04T21:32:40.009Z,75.06
2022-09-04T21:35:19.551Z,75.16
2022-09-04T21:37:55.660Z,74.92
2022-09-04T21:40:52.790Z,74.50
2022-09-04T21:43:50.838Z,74.20
2022-09-04T21:46:34.568Z,74.34
2022-09-04T21:49:26.416Z,74.14
2022-09-04T21:52:25.599Z,73.89
2022-09-04T21:58:58.613Z,74.27
2022-09-04T22:02:25.901Z,74.88
2022-09-04T22:02:45.675Z,75.25
2022-09-04T22:04:42.602Z,75.56
2022-09-04T22:11:19.461Z,75.36
2022-09-04T22:13:46.007Z,75.22
2022-09-04T22:13:49.948Z,75.34
2022-09-04T22:16:33.578Z,74.96
2022-09-04T22:19:20.984Z,75.34
2022-09-04T22:22:03.136Z,75.20
2022-09-04T22:25:02.168Z,75.01
2022-09-04T22:28:11.802Z,75.35
2022-09-04T22:30:56.943Z,75.01
2022-09-04T22:34:16.974Z,74.94
2022-09-04T22:37:00.811Z,75.00
2022-09-04T22:40:07.782Z,75.25
2022-09-04T22:42:48.101Z,75.11
2022-09-04T22:45:53.855Z,74.79
2022-09-04T22:49:12.864Z,74.50
2022-09-04T22:52:17.253Z,74.24
2022-09-04T22:55:17.835Z,74.03
2022-09-04T22:58:15.606Z,73.73
2022-09-04T23:01:04.209Z,74.22
2022-09-04T23:03:45.264Z,73.83
2022-09-04T23:09:22.125Z,74.10
2022-09-04T23:13:51.941Z,73.57
2022-09-04T23:14:00.694Z,73.85
2022-09-04T23:16:17.314Z,74.15
2022-09-04T23:26:35.670Z,73.69
2022-09-04T23:26:48.240Z,73.79
2022-09-04T23:26:48.654Z,73.63
2022-09-04T23:28:23.544Z,73.53
2022-09-04T23:31:19.132Z,73.40
2022-09-04T23:34:33.854Z,74.27
2022-09-04T23:37:16.963Z,74.13
2022-09-04T23:40:07.334Z,74.43
2022-09-04T23:43:10.065Z,74.43
2022-09-04T23:46:13.781Z,73.92
2022-09-04T23:48:53.611Z,74.12
2022-09-04T23:51:31.876Z,73.49
2022-09-04T23:54:26.153Z,73.27
2022-09-04T23:57:01.260Z,73.33
2022-09-04T23:59:50.221Z,73.70
